createdAt,value
2023-10-01T00:01:00.388Z,19.6
2023-10-01T00:13:00.326Z,19.6
2023-10-01T00:25:00.403Z,19.6
2023-10-01T00:37:00.265Z,19.6
2023-10-01T00:49:00.500Z,19.6
2023-10-01T01:01:00.363Z,19.6
2023-10-01T01:13:00.291Z,19.6
2023-10-01T01:25:00.456Z,19.5
2023-10-01T01:37:00.442Z,19.6
2023-10-01T01:49:00.511Z,19.6
2023-10-01T02:01:00.348Z,19.5
2023-10-01T02:13:00.487Z,19.5
2023-10-01T02:25:00.502Z,19.5
2023-10-01T02:37:00.384Z,19.5
2023-10-01T02:49:00.524Z,19.5
2023-10-01T03:01:00.518Z,19.5
2023-10-01T03:13:00.523Z,19.5
2023-10-01T03:25:00.423Z,19.5
2023-10-01T03:37:00.623Z,19.5
2023-10-01T03:49:01.540Z,19.5
2023-10-01T04:01:00.491Z,19.5
2023-10-01T04:13:00.428Z,19.5
2023-10-01T04:25:00.652Z,19.6
2023-10-01T04:37:00.566Z,19.5
2023-10-01T04:49:00.652Z,19.5
2023-10-01T05:01:00.452Z,19.5
2023-10-01T05:13:00.762Z,19.5
2023-10-01T05:25:00.573Z,19.5
2023-10-01T05:37:00.609Z,19.5
2023-10-01T05:49:00.892Z,19.6
2023-10-01T06:01:00.685Z,19.5
2023-10-01T06:13:00.614Z,19.6
2023-10-01T06:25:00.599Z,19.6
2023-10-01T06:37:00.997Z,19.5
2023-10-01T06:49:01.063Z,19.5
2023-10-01T07:01:00.639Z,19.6
2023-10-01T07:13:00.712Z,19.6
2023-10-01T07:25:00.821Z,19.5
2023-10-01T07:37:00.739Z,19.6
2023-10-01T07:49:00.844Z,19.6
2023-10-01T08:01:00.808Z,19.6
2023-10-01T08:13:00.822Z,19.6
2023-10-01T08:25:00.752Z,19.6
2023-10-01T08:37:00.820Z,19.6
2023-10-01T08:49:00.976Z,19.6
2023-10-01T09:01:00.953Z,19.8
2023-10-01T09:13:00.996Z,19.8
2023-10-01T09:25:01.426Z,19.8
2023-10-01T09:37:00.942Z,19.8
2023-10-01T09:49:01.096Z,19.8
2023-10-01T10:01:00.931Z,19.8
2023-10-01T10:13:00.939Z,19.9
2023-10-01T10:25:01.045Z,19.9
2023-10-01T10:37:01.260Z,19.9
2023-10-01T10:49:01.507Z,20
2023-10-01T11:13:00.988Z,20
2023-10-01T11:25:02.999Z,20.1
2023-10-01T11:37:01.467Z,20.1
2023-10-01T11:49:01.795Z,20.2
2023-10-01T12:01:01.296Z,20.4
2023-10-01T12:13:01.147Z,20.5
2023-10-01T12:25:02.558Z,20.5
2023-10-01T12:37:01.111Z,20.4
2023-10-01T12:49:01.149Z,20.4
2023-10-01T13:01:01.158Z,20.3
2023-10-01T13:13:01.080Z,20.4
2023-10-01T13:25:01.257Z,20.5
2023-10-01T13:37:01.165Z,20.4
2023-10-01T13:49:01.185Z,20.6
2023-10-01T14:01:01.050Z,20.6
2023-10-01T14:13:01.182Z,20.7
2023-10-01T14:25:01.171Z,21
2023-10-01T14:37:01.185Z,21.3
2023-10-01T14:49:01.264Z,21.5
2023-10-01T15:01:01.091Z,21.5
2023-10-01T15:13:01.262Z,21.4
2023-10-01T15:25:01.367Z,21.3
2023-10-01T15:37:01.239Z,21.2
2023-10-01T15:49:01.286Z,21
2023-10-01T16:01:01.541Z,20.9
2023-10-01T16:13:01.346Z,21.2
2023-10-01T16:25:01.257Z,21.3
2023-10-01T16:37:01.662Z,21.2
2023-10-01T16:49:02.157Z,21.3
2023-10-01T17:01:01.292Z,21.2
2023-10-01T17:13:01.299Z,21.1
2023-10-01T17:25:01.384Z,21.1
2023-10-01T17:37:01.394Z,21.1
2023-10-01T17:49:01.441Z,21.1
2023-10-01T18:01:01.798Z,21.1
2023-10-01T18:13:02.194Z,21
2023-10-01T18:25:01.396Z,20.9
2023-10-01T18:37:01.423Z,21
2023-10-01T18:49:01.365Z,21
2023-10-01T19:01:01.459Z,20.9
2023-10-01T19:13:01.425Z,20.9
2023-10-01T19:25:01.476Z,20.8
2023-10-01T19:37:01.590Z,20.8
2023-10-01T19:49:01.476Z,20.7
2023-10-01T20:01:01.492Z,20.7
2023-10-01T20:13:01.423Z,20.7
2023-10-01T20:25:01.572Z,20.7
2023-10-01T20:37:01.538Z,20.6
2023-10-01T20:49:01.482Z,20.7
2023-10-01T21:01:02.041Z,20.7
2023-10-01T21:13:01.607Z,20.7
2023-10-01T21:25:01.503Z,20.7
2023-10-01T21:37:01.503Z,20.6
2023-10-01T21:49:01.603Z,20.6
2023-10-01T22:01:01.627Z,20.6
2023-10-01T22:13:01.531Z,20.6
2023-10-01T22:25:01.753Z,20.6
2023-10-01T22:37:01.815Z,20.6
2023-10-01T22:49:01.658Z,20.6
2023-10-01T23:01:01.590Z,20.6
2023-10-01T23:13:01.796Z,20.5
2023-10-01T23:25:01.705Z,20.5
2023-10-01T23:37:01.704Z,20.5
2023-10-01T23:49:02.231Z,20.5
